Time;durP1;ratioP1;P1;durP2;ratioP2;P2;SDS_P1;SDS_P2;PMS_P1;PMS_P2;Temp;Humidity;BMP_temperature;BMP_pressure;BME280_temperature;BME280_humidity;BME280_pressure;Samples;Min_cycle;Max_cycle;Signal;HPM_P1;HPM_P2
2023/01/07 00:01:27;;;;;;;20.82;9.75;;;;;;;2.17;68.98;101989.59;1772086;80;26557;-61
2023/01/07 00:03:56;;;;;;;19.12;10.95;;;;;;;2.14;69.09;101980.88;1772193;80;25763;-61
2023/01/07 00:06:29;;;;;;;23.22;11.05;;;;;;;2.12;69.25;101976.06;1763689;80;27449;-60
2023/01/07 00:08:57;;;;;;;22.50;11.38;;;;;;;2.12;69.35;101978.25;1757894;81;33664;-61
2023/01/07 00:11:36;;;;;;;18.25;10.80;;;;;;;2.14;69.45;101969.78;1759239;81;25799;-60
2023/01/07 00:14:05;;;;;;;23.40;12.28;;;;;;;2.18;69.56;101970.54;1762082;81;26536;-60
2023/01/07 00:16:35;;;;;;;21.12;9.90;;;;;;;2.18;69.69;101962.13;1763908;81;25770;-60
2023/01/07 00:19:04;;;;;;;15.23;10.08;;;;;;;2.22;69.89;101969.97;1763968;80;27460;-60
2023/01/07 00:21:32;;;;;;;26.85;10.88;;;;;;;2.26;69.97;101967.63;1759274;81;25431;-60
2023/01/07 00:24:02;;;;;;;20.92;11.15;;;;;;;2.29;69.92;101972.81;1759139;81;25672;-60
2023/01/07 00:26:34;;;;;;;17.20;10.18;;;;;;;2.33;69.96;101972.66;1759354;81;25738;-60
2023/01/07 00:29:04;;;;;;;23.27;12.37;;;;;;;2.32;69.85;101966.97;1759509;81;26248;-58
2023/01/07 00:31:34;;;;;;;26.52;12.55;;;;;;;2.29;69.69;101970.16;1759332;81;28421;-60
2023/01/07 00:36:32;;;;;;;27.10;13.40;;;;;;;2.17;69.57;101957.73;1696948;84;25787;-61
2023/01/07 00:39:07;;;;;;;27.77;13.50;;;;;;;2.10;69.52;101961.97;1776938;80;25781;-59
2023/01/07 00:41:36;;;;;;;28.07;11.80;;;;;;;2.01;69.55;101957.38;1772001;80;26907;-59
2023/01/07 00:44:05;;;;;;;28.45;14.70;;;;;;;1.91;69.52;101965.23;1768571;80;27470;-59
2023/01/07 00:46:32;;;;;;;28.75;14.45;;;;;;;1.84;69.40;101964.56;1772204;80;25476;-59
2023/01/07 00:49:00;;;;;;;26.73;13.15;;;;;;;1.75;69.37;101966.66;1772511;80;25691;-59
2023/01/07 00:51:27;;;;;;;26.12;13.25;;;;;;;1.66;69.47;101966.52;1772240;80;25806;-59
2023/01/07 00:53:54;;;;;;;28.40;12.53;;;;;;;1.60;69.51;101969.34;1772267;80;25741;-59
2023/01/07 00:56:21;;;;;;;23.47;12.05;;;;;;;1.52;69.63;101963.83;1772439;80;27443;-59
2023/01/07 00:58:49;;;;;;;30.32;13.60;;;;;;;1.47;69.80;101979.03;1772217;80;25505;-59
2023/01/07 01:01:16;;;;;;;28.57;12.68;;;;;;;1.40;70.05;101975.70;1772197;80;25813;-60
2023/01/07 01:03:43;;;;;;;29.00;13.53;;;;;;;1.38;70.15;101983.29;1772414;80;26503;-59
2023/01/07 01:06:14;;;;;;;26.37;14.25;;;;;;;1.36;70.27;101982.47;1763625;80;25694;-59
2023/01/07 01:08:44;;;;;;;25.23;14.25;;;;;;;1.32;70.27;101975.06;1735802;82;27445;-59
2023/01/07 01:11:14;;;;;;;43.05;16.65;;;;;;;1.28;70.37;101974.73;1735461;82;25675;-59
2023/01/07 01:13:43;;;;;;;27.65;15.78;;;;;;;1.25;70.42;101986.77;1735870;82;25754;-60
2023/01/07 01:16:15;;;;;;;29.85;15.93;;;;;;;1.22;70.46;101981.55;1735650;81;26774;-59
2023/01/07 01:18:43;;;;;;;39.08;17.77;;;;;;;1.17;70.32;101980.36;1735752;82;25771;-59
2023/01/07 01:21:13;;;;;;;34.45;17.10;;;;;;;1.12;70.21;101976.11;1735558;82;28165;-59
2023/01/07 01:23:41;;;;;;;30.45;15.55;;;;;;;1.04;70.13;101973.23;1735796;82;26272;-60
2023/01/07 01:26:13;;;;;;;25.40;15.65;;;;;;;0.98;70.03;101972.54;1735467;82;25813;-59
2023/01/07 01:28:40;;;;;;;23.77;13.93;;;;;;;0.92;70.12;101969.60;1735741;82;25814;-59
2023/01/07 01:31:08;;;;;;;30.62;14.47;;;;;;;0.86;69.96;101971.11;1735525;81;25917;-59
2023/01/07 01:33:42;;;;;;;38.90;16.85;;;;;;;0.80;70.01;101953.61;1751918;80;27456;-60
2023/01/07 01:36:12;;;;;;;29.15;15.50;;;;;;;0.74;70.01;101946.70;1772210;80;25736;-59
2023/01/07 01:38:40;;;;;;;32.78;15.48;;;;;;;0.73;70.05;101934.84;1772280;80;25749;-59
2023/01/07 01:41:08;;;;;;;41.18;19.60;;;;;;;0.69;70.07;101934.06;1772339;80;25771;-59
2023/01/07 01:43:40;;;;;;;36.38;17.55;;;;;;;0.68;70.22;101927.46;1772352;80;26335;-59
2023/01/07 01:46:25;;;;;;;37.15;18.50;;;;;;;0.68;70.31;101930.11;1772100;80;27491;-59
2023/01/07 01:48:58;;;;;;;29.37;17.45;;;;;;;0.68;70.50;101923.05;1751725;80;25945;-59
2023/01/07 01:51:33;;;;;;;36.00;16.17;;;;;;;0.64;70.41;101932.45;1729387;82;25762;-60
2023/01/07 01:53:57;;;;;;;40.05;18.45;;;;;;;0.55;70.32;101933.56;1730053;82;25849;-59
2023/01/07 01:56:29;;;;;;;33.50;16.57;;;;;;;0.45;70.37;101933.81;1729708;82;25811;-59
2023/01/07 01:59:02;;;;;;;30.05;15.48;;;;;;;0.41;70.34;101936.16;1709397;82;27687;-60
2023/01/07 02:01:33;;;;;;;;;;;;;;;0.39;70.16;101931.81;1732229;82;25798;-59
2023/01/07 02:04:11;;;;;;;34.33;17.85;;;;;;;0.29;70.03;101936.47;1730028;82;25738;-60
2023/01/07 02:07:03;;;;;;;32.33;17.02;;;;;;;0.22;70.22;101934.91;1733758;81;26498;-60
2023/01/07 02:09:30;;;;;;;34.98;17.52;;;;;;;0.17;70.35;101939.47;1745876;82;25830;-59
2023/01/07 02:12:44;;;;;;;32.98;16.60;;;;;;;0.11;70.49;101943.14;1745757;82;28446;-59
2023/01/07 02:15:34;;;;;;;32.95;16.17;;;;;;;0.06;70.67;101937.96;1745549;82;25726;-60
2023/01/07 02:18:27;;;;;;;38.85;16.80;;;;;;;0.01;70.89;101946.92;1745739;82;25671;-59
2023/01/07 02:21:17;;;;;;;30.82;16.32;;;;;;;0.03;71.19;101946.44;1702135;82;26612;-59
2023/01/07 02:24:20;;;;;;;28.30;15.65;;;;;;;0.08;71.33;101941.87;1745871;82;25415;-59
2023/01/07 02:27:21;;;;;;;27.05;16.17;;;;;;;0.13;71.27;101934.71;1623218;88;27573;-59
2023/01/07 02:30:18;;;;;;;29.67;16.95;;;;;;;0.16;71.28;101942.55;1652778;86;25948;-60
2023/01/07 02:33:29;;;;;;;31.25;16.85;;;;;;;0.16;71.04;101935.94;1654743;86;25905;-60
2023/01/07 02:36:35;;;;;;;30.92;15.85;;;;;;;0.12;71.07;101938.27;1675559;85;25824;-60
2023/01/07 02:39:31;;;;;;;29.35;15.28;;;;;;;0.09;71.17;101931.72;1622614;88;25959;-60
2023/01/07 02:42:06;;;;;;;34.35;16.00;;;;;;;0.07;70.97;101918.53;1622527;87;27446;-60
2023/01/07 02:44:50;;;;;;;31.33;15.72;;;;;;;0.03;71.09;101916.01;1621428;87;26071;-59
2023/01/07 02:47:31;;;;;;;31.68;15.83;;;;;;;0.00;71.18;101914.32;1622636;88;25815;-59
2023/01/07 02:50:00;;;;;;;27.30;16.10;;;;;;;0.01;71.21;101915.17;1622640;88;25809;-59
2023/01/07 02:52:30;;;;;;;28.12;15.40;;;;;;;0.01;71.15;101904.13;1622521;88;26100;-59
2023/01/07 02:55:02;;;;;;;26.57;15.85;;;;;;;-0.01;71.18;101902.00;1622815;87;27606;-59
2023/01/07 02:57:55;;;;;;;40.52;15.60;;;;;;;-0.03;71.31;101903.34;1666275;82;25938;-59
2023/01/07 03:00:43;;;;;;;29.65;16.55;;;;;;;-0.03;71.31;101904.66;1736847;82;25754;-59
2023/01/07 03:03:43;;;;;;;37.70;17.65;;;;;;;-0.03;71.38;101899.37;1736607;82;25859;-60
2023/01/07 03:06:44;;;;;;;32.10;15.90;;;;;;;-0.03;71.45;101899.84;1741470;81;25731;-59
2023/01/07 03:09:34;;;;;;;30.48;16.42;;;;;;;-0.06;71.33;101902.12;1759193;80;27654;-59
2023/01/07 03:12:19;;;;;;;36.83;17.12;;;;;;;-0.03;71.37;101899.84;1746492;80;26116;-59
2023/01/07 03:14:50;;;;;;;33.55;16.48;;;;;;;-0.07;71.32;101892.88;1754313;80;25791;-59
2023/01/07 03:17:22;;;;;;;31.05;16.45;;;;;;;-0.09;71.03;101893.39;1709386;83;25817;-60
2023/01/07 03:19:53;;;;;;;32.53;16.57;;;;;;;-0.09;71.03;101892.92;1746193;82;25696;-59
2023/01/07 03:22:24;;;;;;;31.30;16.20;;;;;;;-0.10;71.18;101886.36;1746025;81;27471;-59
2023/01/07 03:24:55;;;;;;;25.82;16.05;;;;;;;-0.10;71.26;101892.50;1716903;83;25746;-59
2023/01/07 03:27:27;;;;;;;36.68;17.48;;;;;;;-0.08;71.32;101894.66;1748456;82;25692;-59
2023/01/07 03:29:54;;;;;;;25.30;15.85;;;;;;;-0.05;71.32;101895.92;1727579;82;25939;-59
2023/01/07 03:32:26;;;;;;;32.53;18.27;;;;;;;-0.01;71.48;101902.84;1727822;82;25794;-59
2023/01/07 03:34:54;;;;;;;30.08;16.95;;;;;;;0.05;71.63;101908.88;1740003;82;27562;-59
2023/01/07 03:37:24;;;;;;;28.65;17.15;;;;;;;0.07;71.57;101913.24;1723090;81;25715;-59
2023/01/07 03:39:52;;;;;;;29.35;16.00;;;;;;;0.11;71.54;101916.67;1701914;83;25777;-59
2023/01/07 03:42:39;;;;;;;31.77;17.00;;;;;;;0.11;71.44;101924.61;1702983;84;25960;-59
2023/01/07 03:45:16;;;;;;;29.37;15.53;;;;;;;0.10;71.43;101921.55;1704176;84;26568;-59
2023/01/07 03:47:47;;;;;;;23.47;14.70;;;;;;;0.15;71.64;101914.34;1703906;84;27372;-59
2023/01/07 03:50:16;;;;;;;23.92;15.13;;;;;;;0.15;71.79;101916.55;1705221;83;26240;-59
2023/01/07 03:52:44;;;;;;;25.48;14.80;;;;;;;0.18;71.95;101926.18;1706173;84;25761;-60
2023/01/07 03:55:11;;;;;;;28.87;15.28;;;;;;;0.20;72.05;101924.38;1734641;82;25718;-60
2023/01/07 03:57:38;;;;;;;24.98;15.18;;;;;;;0.23;72.04;101925.59;1710933;83;25757;-60
2023/01/07 04:00:09;;;;;;;28.85;15.83;;;;;;;0.28;72.16;101929.44;1734628;82;27656;-60
2023/01/07 04:02:38;;;;;;;29.23;14.87;;;;;;;0.36;72.35;101928.77;1708669;83;25981;-60
2023/01/07 04:05:08;;;;;;;24.23;14.58;;;;;;;0.49;72.48;101925.36;1734811;82;25770;-60
2023/01/07 04:07:36;;;;;;;26.10;15.00;;;;;;;0.55;72.42;101925.18;1736597;82;25760;-61
2023/01/07 04:10:06;;;;;;;28.47;15.48;;;;;;;0.60;72.44;101932.53;1742063;82;25895;-60
2023/01/07 04:12:33;;;;;;;22.95;14.60;;;;;;;0.62;72.35;101923.23;1722005;82;27697;-60
2023/01/07 04:15:00;;;;;;;28.40;15.28;;;;;;;0.57;72.07;101926.02;1742843;82;25684;-60
2023/01/07 04:17:27;;;;;;;26.73;14.13;;;;;;;0.52;71.86;101921.28;1742493;82;25809;-60
2023/01/07 04:19:53;;;;;;;29.67;14.73;;;;;;;0.54;72.04;101910.20;1713950;83;25767;-60
2023/01/07 04:22:21;;;;;;;29.12;15.03;;;;;;;0.60;72.26;101910.48;1736874;82;25792;-60
2023/01/07 04:24:48;;;;;;;27.42;15.85;;;;;;;0.64;72.38;101908.61;1736672;82;29696;-60
2023/01/07 04:27:16;;;;;;;29.95;14.75;;;;;;;0.68;72.40;101910.25;1736716;82;25749;-60
2023/01/07 04:29:44;;;;;;;26.95;15.38;;;;;;;0.72;72.48;101913.23;1736794;82;25787;-60
2023/01/07 04:32:11;;;;;;;27.02;14.50;;;;;;;0.78;72.54;101918.34;1736868;82;25791;-60
2023/01/07 04:34:38;;;;;;;21.85;14.15;;;;;;;0.82;72.32;101920.44;1759423;81;26023;-60
2023/01/07 04:37:06;;;;;;;25.77;14.05;;;;;;;0.86;72.40;101924.28;1734685;82;27409;-60
2023/01/07 04:39:33;;;;;;;21.23;14.83;;;;;;;0.91;72.45;101925.47;1764739;80;25698;-60
2023/01/07 04:42:00;;;;;;;20.10;12.33;;;;;;;0.96;72.54;101927.98;1764168;81;25766;-60
2023/01/07 04:44:27;;;;;;;19.95;12.63;;;;;;;0.98;72.66;101923.08;1764458;81;26645;-61
2023/01/07 04:46:57;;;;;;;20.88;13.48;;;;;;;1.05;72.83;101926.39;1764135;81;25715;-60
2023/01/07 04:49:24;;;;;;;23.98;12.65;;;;;;;1.11;72.62;101921.36;1764111;81;27490;-60
2023/01/07 04:51:52;;;;;;;18.12;12.15;;;;;;;1.11;72.84;101928.87;1764074;81;25707;-60
2023/01/07 04:54:19;;;;;;;17.02;11.30;;;;;;;1.03;72.71;101935.72;1764168;80;25821;-61
2023/01/07 04:56:48;;;;;;;17.73;11.68;;;;;;;0.98;73.39;101940.73;1764306;81;25774;-61
2023/01/07 04:59:16;;;;;;;18.82;12.35;;;;;;;0.87;73.20;101939.27;1764259;81;27220;-60
2023/01/07 05:01:43;;;;;;;18.42;11.80;;;;;;;0.85;73.10;101932.28;1768284;81;27529;-60
2023/01/07 05:04:10;;;;;;;19.70;13.08;;;;;;;0.85;73.17;101929.64;1764053;81;25496;-60
2023/01/07 05:06:37;;;;;;;17.85;11.60;;;;;;;0.78;73.34;101919.23;1750239;81;25691;-60
2023/01/07 05:09:05;;;;;;;24.75;11.75;;;;;;;0.72;73.48;101921.18;1713803;83;25857;-59
2023/01/07 05:11:32;;;;;;;18.60;10.82;;;;;;;0.69;74.08;101915.52;1714618;83;25796;-60
2023/01/07 05:14:01;;;;;;;18.82;12.00;;;;;;;0.61;74.05;101911.75;1714503;83;27907;-61
2023/01/07 05:16:29;;;;;;;15.93;10.30;;;;;;;0.61;74.38;101905.14;1714524;83;26388;-60
2023/01/07 05:18:58;;;;;;;18.25;11.22;;;;;;;0.61;74.67;101905.14;1714597;83;25732;-60
2023/01/07 05:21:25;;;;;;;20.23;11.10;;;;;;;0.66;74.68;101894.87;1714456;83;25899;-60
2023/01/07 05:23:53;;;;;;;19.37;12.05;;;;;;;0.71;74.68;101896.48;1714588;83;25631;-60
2023/01/07 05:26:21;;;;;;;19.05;11.97;;;;;;;0.72;74.70;101902.17;1714526;83;27642;-60
2023/01/07 05:28:48;;;;;;;20.55;11.75;;;;;;;0.77;74.65;101901.59;1714511;83;25871;-59
2023/01/07 05:31:16;;;;;;;15.85;10.23;;;;;;;0.86;74.67;101906.20;1714555;83;25745;-60
2023/01/07 05:33:43;;;;;;;17.35;10.93;;;;;;;0.88;74.45;101904.39;1710403;83;26651;-60
2023/01/07 05:36:11;;;;;;;18.50;11.60;;;;;;;0.93;74.52;101903.78;1704268;83;25955;-59
2023/01/07 05:38:39;;;;;;;17.73;11.48;;;;;;;1.02;74.63;101913.25;1740856;82;28231;-60
2023/01/07 05:41:07;;;;;;;16.77;10.88;;;;;;;1.11;74.72;101912.09;1747371;82;25890;-60
2023/01/07 05:43:35;;;;;;;17.10;10.90;;;;;;;1.19;74.75;101904.33;1747674;82;25789;-60
2023/01/07 05:46:02;;;;;;;18.90;11.38;;;;;;;1.22;74.66;101900.23;1739829;81;25896;-60
2023/01/07 05:48:29;;;;;;;21.40;13.03;;;;;;;1.25;74.39;101897.50;1730778;82;25732;-59
2023/01/07 05:50:56;;;;;;;21.62;12.60;;;;;;;1.26;74.14;101901.00;1715257;82;27525;-60
2023/01/07 05:53:23;;;;;;;42.73;15.05;;;;;;;1.19;73.90;101913.60;1693130;84;25833;-60
2023/01/07 05:55:58;;;;;;;24.35;14.73;;;;;;;1.17;73.87;101914.53;1708718;83;25756;-58
2023/01/07 05:58:26;;;;;;;22.85;12.58;;;;;;;1.09;74.30;101919.62;1688134;83;26457;-59
2023/01/07 06:00:54;;;;;;;21.37;12.63;;;;;;;1.00;74.04;101913.27;1703298;83;26036;-60
2023/01/07 06:03:21;;;;;;;20.60;12.23;;;;;;;0.99;74.08;101916.84;1688443;83;27670;-60
2023/01/07 06:05:48;;;;;;;26.40;11.73;;;;;;;1.02;74.24;101918.55;1703305;82;26010;-60
2023/01/07 06:08:15;;;;;;;20.70;12.78;;;;;;;1.08;74.44;101915.70;1680305;84;25732;-59
2023/01/07 06:10:43;;;;;;;20.08;11.25;;;;;;;1.14;74.43;101918.16;1704657;84;25798;-60
2023/01/07 06:13:10;;;;;;;17.52;10.88;;;;;;;1.21;74.45;101928.13;1679589;85;25731;-60
2023/01/07 06:15:36;;;;;;;22.35;11.57;;;;;;;1.21;74.24;101922.34;1677518;85;28451;-59
2023/01/07 06:18:03;;;;;;;17.85;10.80;;;;;;;1.21;74.10;101925.00;1679032;84;27231;-60
2023/01/07 06:20:33;;;;;;;24.57;11.43;;;;;;;1.31;74.51;101926.04;1656643;85;25799;-60
2023/01/07 06:23:01;;;;;;;16.52;10.98;;;;;;;1.39;74.34;101929.34;1679916;83;26022;-60
2023/01/07 06:25:28;;;;;;;23.83;12.03;;;;;;;1.46;74.43;101930.00;1738497;82;25722;-61
2023/01/07 06:27:58;;;;;;;19.42;11.90;;;;;;;1.57;74.58;101931.86;1738834;82;29628;-60
2023/01/07 06:30:25;;;;;;;23.27;12.58;;;;;;;1.67;74.57;101926.67;1738801;82;25826;-60
2023/01/07 06:32:53;;;;;;;22.13;12.23;;;;;;;1.79;74.45;101932.02;1744725;81;25824;-60
2023/01/07 06:35:21;;;;;;;19.12;12.15;;;;;;;1.86;74.06;101938.00;1764047;81;25796;-60
2023/01/07 06:37:48;;;;;;;25.85;14.53;;;;;;;1.92;73.88;101933.80;1765867;80;25743;-60
2023/01/07 06:40:15;;;;;;;26.55;14.45;;;;;;;1.96;73.57;101934.13;1738997;82;27455;-60
2023/01/07 06:42:42;;;;;;;29.18;14.18;;;;;;;1.94;73.21;101927.99;1725111;83;25977;-60
2023/01/07 06:45:10;;;;;;;34.15;16.35;;;;;;;1.94;73.01;101927.99;1725350;83;26448;-60
2023/01/07 06:47:38;;;;;;;38.23;17.30;;;;;;;1.95;72.94;101933.72;1742084;81;25881;-60
2023/01/07 06:50:06;;;;;;;35.55;16.70;;;;;;;1.95;72.93;101935.48;1742606;82;25805;-60
2023/01/07 06:52:33;;;;;;;30.30;14.80;;;;;;;1.92;72.87;101938.26;1742119;82;27627;-60
2023/01/07 06:54:59;;;;;;;24.92;13.75;;;;;;;1.96;72.90;101935.89;1742182;82;25720;-60
2023/01/07 06:57:26;;;;;;;22.52;12.60;;;;;;;2.01;72.84;101935.30;1742390;82;25763;-60
2023/01/07 06:59:53;;;;;;;29.18;13.13;;;;;;;1.95;72.47;101929.73;1742456;82;25790;-61
2023/01/07 07:02:24;;;;;;;25.90;13.68;;;;;;;1.97;72.68;101928.34;1742529;82;25718;-60
2023/01/07 07:04:52;;;;;;;23.92;11.85;;;;;;;2.00;72.72;101921.61;1742330;82;27606;-60
2023/01/07 07:07:20;;;;;;;21.25;11.28;;;;;;;2.01;72.81;101914.06;1731700;82;25805;-60
2023/01/07 07:09:49;;;;;;;18.45;12.20;;;;;;;2.10;72.87;101918.17;1729813;82;25834;-60
2023/01/07 07:12:18;;;;;;;21.20;11.83;;;;;;;2.14;72.93;101929.95;1732205;82;25984;-60
2023/01/07 07:14:45;;;;;;;20.68;11.08;;;;;;;2.22;72.86;101932.80;1732641;82;25809;-60
2023/01/07 07:17:12;;;;;;;20.60;11.93;;;;;;;2.32;72.87;101931.12;1732613;82;27637;-60
2023/01/07 07:19:38;;;;;;;24.07;11.53;;;;;;;2.42;72.97;101925.01;1732187;82;25793;-60
2023/01/07 07:22:05;;;;;;;22.27;12.85;;;;;;;2.55;72.89;101928.56;1732108;82;25803;-61
2023/01/07 07:24:32;;;;;;;35.45;14.58;;;;;;;2.68;72.71;101927.65;1732256;82;25823;-60
2023/01/07 07:26:59;;;;;;;22.30;13.25;;;;;;;2.78;72.52;101926.39;1732262;82;25849;-60
2023/01/07 07:29:26;;;;;;;27.60;15.32;;;;;;;2.77;71.78;101921.52;1732410;82;27481;-61
2023/01/07 07:31:53;;;;;;;31.27;16.48;;;;;;;2.77;71.62;101929.48;1732075;82;25762;-61
2023/01/07 07:34:20;;;;;;;27.62;15.05;;;;;;;2.78;71.54;101922.40;1719890;82;25500;-61
2023/01/07 07:36:47;;;;;;;23.57;14.40;;;;;;;2.76;71.38;101927.75;1714100;83;25811;-59
2023/01/07 07:39:15;;;;;;;25.37;14.05;;;;;;;2.76;71.30;101935.72;1755943;81;25756;-59
2023/01/07 07:41:41;;;;;;;26.85;15.25;;;;;;;2.72;71.17;101932.80;1786243;79;27430;-59
2023/01/07 07:44:09;;;;;;;23.92;13.85;;;;;;;2.75;71.19;101935.79;1785956;80;26355;-59
2023/01/07 07:46:36;;;;;;;25.70;14.05;;;;;;;2.72;71.15;101923.49;1786025;79;25795;-59
2023/01/07 07:49:04;;;;;;;32.70;15.13;;;;;;;2.72;70.99;101924.82;1786046;80;25814;-60
2023/01/07 07:51:32;;;;;;;29.20;14.65;;;;;;;2.73;71.05;101928.33;1785917;80;25644;-60
2023/01/07 07:53:59;;;;;;;28.12;13.80;;;;;;;2.77;71.12;101925.50;1786007;80;27432;-59
2023/01/07 07:56:25;;;;;;;26.50;14.05;;;;;;;2.81;71.11;101933.78;1785814;80;25864;-59
2023/01/07 07:58:53;;;;;;;22.32;13.75;;;;;;;2.85;71.00;101931.87;1786034;80;25659;-59
2023/01/07 08:01:19;;;;;;;26.73;13.93;;;;;;;2.81;70.86;101930.23;1786140;80;25716;-60
2023/01/07 08:03:46;;;;;;;18.42;11.80;;;;;;;2.83;71.04;101929.72;1786086;80;25775;-59
2023/01/07 08:06:13;;;;;;;19.90;11.03;;;;;;;2.86;71.01;101940.70;1785855;80;27412;-59
2023/01/07 08:08:41;;;;;;;28.23;11.53;;;;;;;2.84;70.80;101943.42;1785990;80;25461;-59
2023/01/07 08:11:08;;;;;;;19.57;11.55;;;;;;;2.82;70.87;101942.61;1786148;80;25719;-59
2023/01/07 08:13:34;;;;;;;23.98;12.47;;;;;;;2.84;71.12;101939.44;1786175;80;25990;-59
2023/01/07 08:16:01;;;;;;;20.95;11.95;;;;;;;2.87;71.25;101933.98;1786136;80;26067;-59
2023/01/07 08:18:28;;;;;;;22.37;10.98;;;;;;;2.95;71.48;101931.05;1786116;80;27279;-59
2023/01/07 08:20:55;;;;;;;17.23;10.43;;;;;;;2.95;71.11;101936.36;1785956;80;26264;-60
2023/01/07 08:23:22;;;;;;;19.95;10.38;;;;;;;2.99;71.17;101944.64;1785998;80;25781;-59
2023/01/07 08:25:49;;;;;;;33.63;9.95;;;;;;;3.06;71.21;101942.59;1785901;80;25723;-59
2023/01/07 08:28:16;;;;;;;17.87;10.68;;;;;;;3.11;71.05;101941.50;1785830;80;25951;-59
2023/01/07 08:30:42;;;;;;;19.00;11.45;;;;;;;3.08;70.83;101942.08;1786181;80;27324;-60
2023/01/07 08:33:10;;;;;;;17.15;10.82;;;;;;;3.07;70.77;101938.56;1782893;80;25741;-60
2023/01/07 08:35:37;;;;;;;14.13;10.10;;;;;;;3.09;70.64;101944.67;1772641;80;25764;-60
2023/01/07 08:38:08;;;;;;;16.75;10.43;;;;;;;3.08;70.41;101940.75;1795604;78;26754;-59
2023/01/07 08:40:37;;;;;;;20.23;11.38;;;;;;;3.10;70.42;101941.09;1810690;79;25973;-61
2023/01/07 08:43:06;;;;;;;22.37;11.75;;;;;;;3.11;70.28;101946.81;1810473;79;27447;-60
2023/01/07 08:45:34;;;;;;;30.37;16.10;;;;;;;3.14;70.33;101949.81;1810584;79;25821;-60
2023/01/07 08:48:01;;;;;;;23.73;15.00;;;;;;;3.20;70.41;101953.58;1810069;79;25474;-60
2023/01/07 08:50:31;;;;;;;25.97;14.80;;;;;;;3.27;70.49;101947.57;1771708;81;25794;-59
2023/01/07 08:52:58;;;;;;;27.35;15.38;;;;;;;3.36;70.51;101950.31;1772208;81;25681;-61
2023/01/07 08:55:25;;;;;;;25.12;13.48;;;;;;;3.43;70.39;101946.48;1771782;80;27695;-60
2023/01/07 08:57:52;;;;;;;23.67;14.10;;;;;;;3.43;70.07;101950.47;1771691;80;25797;-60
2023/01/07 09:00:19;;;;;;;28.12;14.85;;;;;;;3.40;69.90;101939.97;1771962;80;25706;-60
2023/01/07 09:02:47;;;;;;;23.50;13.85;;;;;;;3.36;69.89;101933.02;1771885;81;25798;-60
2023/01/07 09:05:14;;;;;;;21.12;12.73;;;;;;;3.43;69.91;101925.20;1772145;80;25738;-60
2023/01/07 09:07:41;;;;;;;21.90;13.15;;;;;;;3.50;69.60;101921.36;1754110;80;27589;-60
2023/01/07 09:10:09;;;;;;;19.52;12.33;;;;;;;3.56;69.62;101917.59;1734695;82;26202;-59
2023/01/07 09:12:37;;;;;;;28.15;14.83;;;;;;;3.56;69.53;101915.81;1735116;82;25806;-60
2023/01/07 09:15:06;;;;;;;34.67;16.80;;;;;;;3.54;69.53;101920.80;1734966;82;25779;-60
2023/01/07 09:17:32;;;;;;;27.90;14.70;;;;;;;3.49;69.32;101919.66;1734779;82;25871;-60
2023/01/07 09:20:02;;;;;;;23.50;12.70;;;;;;;3.42;69.42;101923.02;1734804;82;27716;-60
2023/01/07 09:22:31;;;;;;;22.17;12.35;;;;;;;3.45;69.47;101926.02;1727316;82;25731;-59
2023/01/07 09:24:58;;;;;;;19.40;11.88;;;;;;;3.52;69.61;101917.33;1727485;82;25754;-60
2023/01/07 09:27:26;;;;;;;21.05;11.35;;;;;;;3.59;69.64;101914.33;1727445;82;25798;-60
2023/01/07 09:29:57;;;;;;;18.67;10.30;;;;;;;3.67;69.72;101915.84;1727678;82;26018;-60
2023/01/07 09:32:26;;;;;;;19.57;10.30;;;;;;;3.74;69.82;101918.16;1732773;82;27573;-60
2023/01/07 09:34:54;;;;;;;17.10;9.83;;;;;;;3.79;69.60;101905.99;1724931;82;25703;-60
2023/01/07 09:37:22;;;;;;;19.25;11.70;;;;;;;3.81;69.35;101913.94;1737105;82;25490;-59
2023/01/07 09:39:49;;;;;;;24.18;11.78;;;;;;;3.85;69.27;101914.19;1777601;80;25927;-58
2023/01/07 09:42:39;;;;;;;27.27;13.60;;;;;;;3.89;69.33;101915.81;1726843;83;27317;-60
2023/01/07 09:45:29;;;;;;;37.78;18.05;;;;;;;3.91;68.94;101912.14;1769563;80;27426;-59
2023/01/07 09:48:00;;;;;;;35.60;19.60;;;;;;;3.97;69.13;101912.35;1719341;82;25707;-60
2023/01/07 09:50:47;;;;;;;33.58;17.85;;;;;;;4.08;69.03;101914.06;1780098;80;26441;-59
2023/01/07 09:53:22;;;;;;;31.52;16.77;;;;;;;4.19;68.97;101916.29;1786790;80;25799;-60
2023/01/07 09:55:53;;;;;;;28.87;14.80;;;;;;;4.27;68.65;101909.75;1774120;80;25787;-59
2023/01/07 09:58:21;;;;;;;28.00;16.10;;;;;;;4.30;68.15;101902.97;1717202;80;27413;-60
2023/01/07 10:00:59;;;;;;;27.58;13.78;;;;;;;4.26;68.19;101916.02;1761637;81;25842;-59
2023/01/07 10:03:46;;;;;;;26.12;12.60;;;;;;;4.23;67.82;101913.02;1761789;80;25839;-60
2023/01/07 10:06:46;;;;;;;18.30;11.85;;;;;;;4.20;67.93;101911.81;1751135;81;26023;-59
2023/01/07 10:09:33;;;;;;;16.87;10.63;;;;;;;4.21;67.71;101911.73;1696879;82;25936;-59
2023/01/07 10:12:40;;;;;;;18.92;12.05;;;;;;;4.16;67.51;101910.23;1733779;82;27477;-59
2023/01/07 10:15:45;;;;;;;23.22;11.63;;;;;;;4.10;67.52;101908.70;1733772;82;25816;-58
2023/01/07 10:18:32;;;;;;;19.60;12.60;;;;;;;4.04;67.57;101900.50;1733958;82;25749;-59
2023/01/07 10:21:19;;;;;;;24.67;11.50;;;;;;;4.06;67.76;101902.64;1733604;82;25957;-58
2023/01/07 10:23:51;;;;;;;37.98;11.53;;;;;;;4.05;67.67;101910.23;1733534;82;25729;-59
2023/01/07 10:26:36;;;;;;;18.15;10.18;;;;;;;4.03;67.73;101908.09;1733904;82;46242;-58
2023/01/07 10:29:16;;;;;;;16.73;9.68;;;;;;;4.05;67.69;101906.68;1733971;82;25708;-57
2023/01/07 10:31:45;;;;;;;20.15;9.88;;;;;;;4.03;67.54;101907.23;1733945;82;25754;-58
2023/01/07 10:34:17;;;;;;;20.60;9.98;;;;;;;4.00;67.54;101917.53;1753194;81;25925;-59
2023/01/07 10:36:50;;;;;;;18.80;10.40;;;;;;;4.01;67.71;101912.61;1757897;80;25498;-59
2023/01/07 10:39:28;;;;;;;24.75;11.73;;;;;;;4.06;67.78;101913.30;1773358;80;27516;-59
2023/01/07 10:42:22;;;;;;;18.62;10.23;;;;;;;4.07;67.66;101908.37;1773723;80;25744;-60
2023/01/07 10:45:26;;;;;;;18.80;10.20;;;;;;;4.03;67.49;101912.08;1813075;79;25750;-59
2023/01/07 10:48:13;;;;;;;17.12;11.05;;;;;;;3.99;67.59;101909.13;1755474;79;25785;-60
2023/01/07 10:51:06;;;;;;;21.37;11.90;;;;;;;3.97;67.70;101901.70;1784563;80;26400;-59
2023/01/07 10:54:00;;;;;;;20.57;11.30;;;;;;;3.97;67.65;101903.03;1773918;79;27498;-59
2023/01/07 10:56:42;;;;;;;17.90;11.35;;;;;;;3.91;67.80;101900.16;1716607;83;25802;-59
2023/01/07 10:59:20;;;;;;;16.90;11.88;;;;;;;3.91;68.00;101897.50;1749802;82;25740;-59
2023/01/07 11:01:56;;;;;;;19.67;10.98;;;;;;;3.94;68.02;101887.66;1764976;79;25805;-60
2023/01/07 11:04:24;;;;;;;15.43;10.88;;;;;;;3.92;68.00;101885.05;1782421;79;27349;-59
2023/01/07 11:07:05;;;;;;;19.60;12.03;;;;;;;3.89;68.07;101883.86;1786508;79;28187;-58
2023/01/07 11:09:40;;;;;;;24.37;11.00;;;;;;;3.88;68.21;101876.80;1762019;80;26058;-59
2023/01/07 11:12:27;;;;;;;29.37;15.45;;;;;;;3.91;68.34;101877.98;1772192;79;26570;-59
2023/01/07 11:14:57;;;;;;;26.23;11.57;;;;;;;3.97;68.50;101881.73;1774888;79;25773;-59
2023/01/07 11:17:44;;;;;;;16.50;10.68;;;;;;;4.01;68.61;101880.66;1737468;82;25849;-59
2023/01/07 11:20:11;;;;;;;20.48;10.88;;;;;;;4.04;68.60;101887.19;1732917;82;27465;-59
2023/01/07 11:22:39;;;;;;;23.12;10.43;;;;;;;4.08;68.71;101879.45;1771778;79;25794;-59
2023/01/07 11:25:28;;;;;;;20.00;11.33;;;;;;;4.12;68.85;101880.66;1756550;79;25798;-59
2023/01/07 11:28:01;;;;;;;22.90;12.07;;;;;;;4.20;68.82;101883.40;1738988;80;26737;-60
2023/01/07 11:30:33;;;;;;;17.98;10.70;;;;;;;4.29;68.81;101873.27;1773460;79;25766;-59
2023/01/07 11:33:05;;;;;;;26.07;10.32;;;;;;;4.33;68.82;101878.84;1765110;79;27479;-60
2023/01/07 11:35:33;;;;;;;24.07;10.45;;;;;;;4.38;68.75;101868.38;1761365;80;25831;-60
2023/01/07 11:38:00;;;;;;;20.27;11.80;;;;;;;4.47;68.53;101867.56;1776774;79;25720;-59
2023/01/07 11:40:31;;;;;;;29.60;12.37;;;;;;;4.48;68.40;101871.96;1800353;79;25776;-59
2023/01/07 11:43:02;;;;;;;19.15;12.58;;;;;;;4.49;68.48;101871.03;1800099;79;25713;-60